Time;durP1;ratioP1;P1;durP2;ratioP2;P2;SDS_P1;SDS_P2;PMS_P1;PMS_P2;Temp;Humidity;BMP_temperature;BMP_pressure;BME280_temperature;BME280_humidity;BME280_pressure;Samples;Min_cycle;Max_cycle;Signal;HPM_P1;HPM_P2
2023/03/20 00:01:43;;;;;;;;;;;24.80;99.90;;;;;;4939495;29;19954;-54
2023/03/20 00:04:09;;;;;;;;;;;24.70;99.90;;;;;;4944156;28;19907;-54
2023/03/20 00:06:35;;;;;;;;;;;24.70;99.90;;;;;;4935376;29;19989;-52
2023/03/20 00:09:01;;;;;;;;;;;24.70;99.90;;;;;;4935431;29;19990;-54
2023/03/20 00:11:30;;;;;;;;;;;24.70;99.90;;;;;;4935145;29;20275;-54
2023/03/20 00:13:56;;;;;;;;;;;24.70;99.90;;;;;;4935198;29;19958;-54
2023/03/20 00:16:23;;;;;;;;;;;24.70;99.90;;;;;;4947966;29;19961;-52
2023/03/20 00:18:49;;;;;;;;;;;24.70;99.90;;;;;;4935112;29;19907;-51
2023/03/20 00:21:16;;;;;;;;;;;24.70;99.90;;;;;;4935082;29;20010;-54
2023/03/20 00:23:42;;;;;;;;;;;24.60;99.90;;;;;;4935361;29;19936;-52
2023/03/20 00:26:17;;;;;;;;;;;24.70;99.90;;;;;;4935335;29;20315;-53
2023/03/20 00:28:46;;;;;;;;;;;24.60;99.90;;;;;;4935399;29;19910;-53
2023/03/20 00:31:24;;;;;;;;;;;24.60;99.90;;;;;;4935101;29;19950;-53
2023/03/20 00:33:50;;;;;;;;;;;24.60;99.90;;;;;;4935055;29;19973;-54
2023/03/20 00:36:16;;;;;;;;;;;24.60;99.90;;;;;;4935024;29;19969;-53
2023/03/20 00:38:42;;;;;;;;;;;24.60;99.90;;;;;;4942606;29;19906;-53
2023/03/20 00:41:21;;;;;;;;;;;24.60;99.90;;;;;;4940526;28;19907;-53
2023/03/20 00:43:48;;;;;;;;;;;24.60;99.90;;;;;;4938804;29;19962;-53
2023/03/20 00:46:14;;;;;;;;;;;24.50;99.90;;;;;;4938999;29;19907;-53
2023/03/20 00:48:41;;;;;;;;;;;24.50;99.90;;;;;;4939090;29;19914;-53
2023/03/20 00:51:06;;;;;;;;;;;24.50;99.90;;;;;;4938810;29;20366;-53
2023/03/20 00:53:32;;;;;;;;;;;24.50;99.90;;;;;;4937242;29;19911;-54
2023/03/20 00:55:58;;;;;;;;;;;24.50;99.90;;;;;;4938813;29;19907;-53
2023/03/20 00:58:24;;;;;;;;;;;24.50;99.90;;;;;;4938633;29;19914;-53
2023/03/20 01:00:50;;;;;;;;;;;24.50;99.90;;;;;;4938084;29;20287;-53
2023/03/20 01:03:17;;;;;;;;;;;24.50;99.90;;;;;;4937324;29;19914;-52
2023/03/20 01:05:43;;;;;;;;;;;24.50;99.90;;;;;;4938855;29;19911;-52
2023/03/20 01:08:13;;;;;;;;;;;24.40;99.90;;;;;;4951571;29;19929;-54
2023/03/20 01:10:39;;;;;;;;;;;24.40;99.90;;;;;;4938635;29;20348;-53
2023/03/20 01:13:05;;;;;;;;;;;24.40;99.90;;;;;;4938479;29;19935;-53
2023/03/20 01:15:32;;;;;;;;;;;24.40;99.90;;;;;;4938453;29;20341;-54
2023/03/20 01:17:58;;;;;;;;;;;24.40;99.90;;;;;;4938228;29;20390;-53
2023/03/20 01:20:25;;;;;;;;;;;24.40;99.90;;;;;;4937200;29;19913;-52
2023/03/20 01:22:51;;;;;;;;;;;24.40;99.90;;;;;;4938465;29;19966;-53
2023/03/20 01:25:17;;;;;;;;;;;24.40;99.90;;;;;;4938184;29;19907;-53
2023/03/20 01:27:48;;;;;;;;;;;24.40;99.90;;;;;;4938375;29;20363;-52
2023/03/20 01:30:24;;;;;;;;;;;24.30;99.90;;;;;;4938266;29;19913;-52
2023/03/20 01:32:50;;;;;;;;;;;24.30;99.90;;;;;;4938097;29;20423;-52
2023/03/20 01:35:18;;;;;;;;;;;24.30;99.90;;;;;;4937959;29;20291;-54
2023/03/20 01:37:44;;;;;;;;;;;24.30;99.90;;;;;;4938363;29;20001;-53
2023/03/20 01:40:27;;;;;;;;;;;24.30;99.90;;;;;;4936642;29;19957;-54
2023/03/20 01:42:52;;;;;;;;;;;24.30;99.90;;;;;;4937990;29;19929;-54
2023/03/20 01:45:20;;;;;;;;;;;24.30;99.90;;;;;;4943113;29;20013;-53
2023/03/20 01:47:46;;;;;;;;;;;24.30;99.90;;;;;;4945367;28;20383;-54
2023/03/20 01:50:18;;;;;;;;;;;24.30;99.90;;;;;;4938024;29;20340;-54
2023/03/20 01:52:44;;;;;;;;;;;24.20;99.90;;;;;;4937894;29;19907;-54
2023/03/20 01:55:10;;;;;;;;;;;24.20;99.90;;;;;;4937696;29;19922;-53
2023/03/20 01:57:37;;;;;;;;;;;24.30;99.90;;;;;;4937608;29;20607;-55
2023/03/20 02:00:04;;;;;;;;;;;24.20;99.90;;;;;;4937986;29;19970;-54
2023/03/20 02:02:31;;;;;;;;;;;24.20;99.90;;;;;;4937527;29;19914;-54
2023/03/20 02:05:05;;;;;;;;;;;24.20;99.90;;;;;;4937352;29;19961;-52
2023/03/20 02:07:31;;;;;;;;;;;24.20;99.90;;;;;;4937577;29;19907;-51
2023/03/20 02:09:57;;;;;;;;;;;24.20;99.90;;;;;;4937494;29;19906;-52
2023/03/20 02:12:23;;;;;;;;;;;24.20;99.90;;;;;;4937324;29;20331;-52
2023/03/20 02:14:49;;;;;;;;;;;24.10;99.90;;;;;;4937128;29;19914;-52
2023/03/20 02:17:15;;;;;;;;;;;24.10;99.90;;;;;;4937844;29;20356;-54
2023/03/20 02:19:47;;;;;;;;;;;24.20;99.90;;;;;;4950013;29;20009;-52
2023/03/20 02:22:30;;;;;;;;;;;24.10;99.90;;;;;;4937213;29;19906;-52
2023/03/20 02:25:05;;;;;;;;;;;24.10;99.90;;;;;;4937231;29;19907;-52
2023/03/20 02:27:49;;;;;;;;;;;24.10;99.90;;;;;;4937169;29;19914;-53
2023/03/20 02:30:23;;;;;;;;;;;24.10;99.90;;;;;;4937422;29;19985;-53
2023/03/20 02:33:00;;;;;;;;;;;24.10;99.90;;;;;;4935847;29;20363;-52
2023/03/20 02:35:26;;;;;;;;;;;24.10;99.90;;;;;;4937094;29;20279;-53
2023/03/20 02:38:08;;;;;;;;;;;24.10;99.90;;;;;;4936829;29;19906;-52
2023/03/20 02:40:37;;;;;;;;;;;24.10;99.90;;;;;;4926158;29;19914;-52
2023/03/20 02:43:05;;;;;;;;;;;24.10;99.90;;;;;;4936902;29;19913;-52
2023/03/20 02:45:37;;;;;;;;;;;24.00;99.90;;;;;;4937017;29;19906;-52
2023/03/20 02:48:07;;;;;;;;;;;24.10;99.90;;;;;;4936599;29;19913;-52
2023/03/20 02:50:59;;;;;;;;;;;24.00;99.90;;;;;;4936818;29;19930;-52
2023/03/20 02:53:34;;;;;;;;;;;24.00;99.90;;;;;;4935643;29;19950;-52
2023/03/20 02:56:10;;;;;;;;;;;24.00;99.90;;;;;;4936572;29;19977;-53
2023/03/20 02:58:45;;;;;;;;;;;24.00;99.90;;;;;;4936557;29;19914;-52
2023/03/20 03:01:13;;;;;;;;;;;24.00;99.90;;;;;;4936762;29;20541;-51
2023/03/20 03:03:45;;;;;;;;;;;24.00;99.90;;;;;;4936384;29;19962;-53
2023/03/20 03:06:16;;;;;;;;;;;23.90;99.90;;;;;;4948471;29;19914;-53
2023/03/20 03:08:46;;;;;;;;;;;24.00;99.90;;;;;;4936349;29;19911;-52
2023/03/20 03:11:12;;;;;;;;;;;23.90;99.90;;;;;;4936268;29;19929;-53
2023/03/20 03:13:41;;;;;;;;;;;23.90;99.90;;;;;;4936021;29;19906;-53
2023/03/20 03:16:13;;;;;;;;;;;23.90;99.90;;;;;;4936186;29;19911;-53
2023/03/20 03:18:39;;;;;;;;;;;23.90;99.90;;;;;;4942110;29;19907;-53
2023/03/20 03:21:06;;;;;;;;;;;23.90;99.90;;;;;;4942888;28;19907;-53
2023/03/20 03:23:36;;;;;;;;;;;23.90;99.90;;;;;;4935897;29;19907;-53
2023/03/20 03:26:03;;;;;;;;;;;23.90;99.90;;;;;;4936064;29;19907;-52
2023/03/20 03:28:29;;;;;;;;;;;23.90;99.90;;;;;;4935770;29;20421;-53
2023/03/20 03:30:56;;;;;;;;;;;23.90;99.90;;;;;;4935959;29;19907;-53
2023/03/20 03:33:31;;;;;;;;;;;23.80;99.90;;;;;;4948628;29;19989;-53
2023/03/20 03:36:17;;;;;;;;;;;23.80;99.90;;;;;;4935953;29;20403;-53
2023/03/20 03:38:53;;;;;;;;;;;23.80;99.90;;;;;;4935241;29;20413;-53
2023/03/20 03:41:28;;;;;;;;;;;23.80;99.90;;;;;;4935670;29;19914;-51
2023/03/20 03:44:06;;;;;;;;;;;23.80;99.90;;;;;;4935797;29;20382;-51
2023/03/20 03:46:32;;;;;;;;;;;23.80;99.90;;;;;;4935632;29;21254;-52
2023/03/20 03:48:59;;;;;;;;;;;23.80;99.90;;;;;;4935572;29;20014;-52
2023/03/20 03:51:28;;;;;;;;;;;23.70;99.90;;;;;;4935410;29;19907;-51
2023/03/20 03:53:59;;;;;;;;;;;23.70;99.90;;;;;;4935761;29;20001;-51
2023/03/20 03:56:26;;;;;;;;;;;23.70;99.90;;;;;;4935340;29;20005;-51
2023/03/20 03:58:53;;;;;;;;;;;23.70;99.90;;;;;;4935697;29;19914;-50
2023/03/20 04:01:19;;;;;;;;;;;23.70;99.90;;;;;;4936011;29;19918;-53
2023/03/20 04:03:47;;;;;;;;;;;23.70;99.90;;;;;;4935470;29;19906;-52
2023/03/20 04:06:14;;;;;;;;;;;23.70;99.90;;;;;;4935394;29;19907;-52
2023/03/20 04:08:40;;;;;;;;;;;23.70;99.90;;;;;;4935394;29;19962;-52
2023/03/20 04:11:07;;;;;;;;;;;23.70;99.90;;;;;;4935256;29;19910;-52
2023/03/20 04:13:33;;;;;;;;;;;23.70;99.90;;;;;;4935377;29;19907;-53
2023/03/20 04:15:59;;;;;;;;;;;23.70;99.90;;;;;;4935465;29;19914;-53
2023/03/20 04:18:24;;;;;;;;;;;23.70;99.90;;;;;;4935370;29;20245;-53
2023/03/20 04:20:51;;;;;;;;;;;23.70;99.90;;;;;;4935426;29;19911;-53
2023/03/20 04:23:16;;;;;;;;;;;23.70;99.90;;;;;;4941458;29;19906;-55
2023/03/20 04:25:42;;;;;;;;;;;23.70;99.90;;;;;;4941688;28;19907;-53
2023/03/20 04:28:09;;;;;;;;;;;23.70;99.90;;;;;;4938889;29;19961;-53
2023/03/20 04:30:35;;;;;;;;;;;23.70;99.90;;;;;;4944241;28;19907;-53
2023/03/20 04:33:00;;;;;;;;;;;23.70;99.90;;;;;;4935038;29;19914;-53
2023/03/20 04:35:26;;;;;;;;;;;23.60;99.90;;;;;;4933898;29;20323;-54
2023/03/20 04:37:52;;;;;;;;;;;23.60;99.90;;;;;;4935299;29;20002;-52
2023/03/20 04:40:17;;;;;;;;;;;23.60;99.90;;;;;;4935057;29;19907;-54
2023/03/20 04:42:43;;;;;;;;;;;23.60;99.90;;;;;;4935162;29;19906;-53
2023/03/20 04:45:09;;;;;;;;;;;23.60;99.90;;;;;;4935078;29;19907;-52
2023/03/20 04:47:34;;;;;;;;;;;23.60;99.90;;;;;;4935065;29;19954;-54
2023/03/20 04:50:00;;;;;;;;;;;23.60;99.90;;;;;;4934762;29;20371;-53
2023/03/20 04:52:26;;;;;;;;;;;23.60;99.90;;;;;;4935134;29;19906;-53
2023/03/20 04:54:51;;;;;;;;;;;23.60;99.90;;;;;;4934829;29;20001;-53
2023/03/20 04:57:17;;;;;;;;;;;23.60;99.90;;;;;;4934782;29;19966;-53
2023/03/20 04:59:42;;;;;;;;;;;23.60;99.90;;;;;;4935127;29;19910;-53
2023/03/20 05:02:08;;;;;;;;;;;23.60;99.90;;;;;;4935469;29;19915;-53
2023/03/20 05:04:34;;;;;;;;;;;23.60;99.90;;;;;;4934652;29;19914;-53
2023/03/20 05:07:00;;;;;;;;;;;23.60;99.90;;;;;;4935032;29;19914;-55
2023/03/20 05:09:26;;;;;;;;;;;23.60;99.90;;;;;;4935142;29;19907;-53
2023/03/20 05:11:51;;;;;;;;;;;23.60;99.90;;;;;;4934578;29;20276;-52
2023/03/20 05:14:17;;;;;;;;;;;23.60;99.90;;;;;;4934611;29;19915;-53
2023/03/20 05:16:43;;;;;;;;;;;23.50;99.90;;;;;;4935106;29;19907;-52
2023/03/20 05:19:08;;;;;;;;;;;23.50;99.90;;;;;;4934621;29;19913;-53
2023/03/20 05:21:34;;;;;;;;;;;23.50;99.90;;;;;;4934441;29;19949;-51
2023/03/20 05:24:00;;;;;;;;;;;23.50;99.90;;;;;;4934790;29;19915;-53
2023/03/20 05:26:25;;;;;;;;;;;23.50;99.90;;;;;;4933549;29;20290;-53
2023/03/20 05:28:51;;;;;;;;;;;23.50;99.90;;;;;;4936697;29;20256;-53
2023/03/20 05:31:17;;;;;;;;;;;23.50;99.90;;;;;;4936853;29;19911;-51
2023/03/20 05:33:42;;;;;;;;;;;23.50;99.90;;;;;;4938041;29;20323;-52
2023/03/20 05:36:08;;;;;;;;;;;23.40;99.90;;;;;;4937674;29;19919;-52
2023/03/20 05:38:34;;;;;;;;;;;23.40;99.90;;;;;;4938065;29;20005;-53
2023/03/20 05:41:00;;;;;;;;;;;23.40;99.90;;;;;;4937858;29;19913;-51
2023/03/20 05:43:27;;;;;;;;;;;23.40;99.90;;;;;;4925307;29;19914;-50
2023/03/20 05:45:54;;;;;;;;;;;23.40;99.90;;;;;;4938066;29;19974;-50
2023/03/20 05:48:19;;;;;;;;;;;23.40;99.90;;;;;;4937784;29;20364;-52
2023/03/20 05:50:46;;;;;;;;;;;23.40;99.90;;;;;;4937820;29;19926;-51
2023/03/20 05:53:11;;;;;;;;;;;23.40;99.90;;;;;;4937525;29;20386;-52
2023/03/20 05:55:37;;;;;;;;;;;23.40;99.90;;;;;;4937412;29;20065;-52
2023/03/20 05:58:04;;;;;;;;;;;23.40;99.90;;;;;;4936398;29;20002;-53
2023/03/20 06:00:29;;;;;;;;;;;23.30;99.90;;;;;;4936611;29;20315;-53
2023/03/20 06:02:55;;;;;;;;;;;23.30;99.90;;;;;;4937400;29;19913;-54
2023/03/20 06:05:21;;;;;;;;;;;23.30;99.90;;;;;;4937588;29;19910;-53
2023/03/20 06:07:46;;;;;;;;;;;23.30;99.90;;;;;;4937478;29;19910;-53
2023/03/20 06:10:12;;;;;;;;;;;23.30;99.90;;;;;;4936254;29;19907;-53
2023/03/20 06:12:37;;;;;;;;;;;23.30;99.90;;;;;;4936209;29;19903;-53
2023/03/20 06:15:04;;;;;;;;;;;23.30;99.90;;;;;;4937569;29;20386;-54
2023/03/20 06:17:29;;;;;;;;;;;23.30;99.90;;;;;;4937704;29;20331;-53
2023/03/20 06:19:55;;;;;;;;;;;23.30;99.90;;;;;;4937171;29;19907;-54
2023/03/20 06:22:21;;;;;;;;;;;23.30;99.90;;;;;;4937269;29;20345;-53
2023/03/20 06:24:46;;;;;;;;;;;23.30;99.90;;;;;;4937122;29;19911;-53
2023/03/20 06:27:12;;;;;;;;;;;23.30;99.90;;;;;;4937060;29;19937;-52
2023/03/20 06:29:37;;;;;;;;;;;23.30;99.90;;;;;;4936994;29;19906;-52
2023/03/20 06:32:06;;;;;;;;;;;23.30;99.90;;;;;;4935962;29;19914;-52
2023/03/20 06:34:32;;;;;;;;;;;23.30;99.90;;;;;;4937141;29;19961;-52
2023/03/20 06:36:58;;;;;;;;;;;23.30;99.90;;;;;;4937162;29;19994;-52
2023/03/20 06:39:24;;;;;;;;;;;23.30;99.90;;;;;;4936205;29;20001;-52
2023/03/20 06:41:49;;;;;;;;;;;23.30;99.90;;;;;;4935170;29;20009;-52
2023/03/20 06:44:15;;;;;;;;;;;23.30;99.90;;;;;;4936876;29;19994;-55
2023/03/20 06:46:40;;;;;;;;;;;23.30;99.90;;;;;;4936780;29;19907;-53
2023/03/20 06:49:06;;;;;;;;;;;23.30;99.90;;;;;;4936606;29;20062;-53
2023/03/20 06:51:32;;;;;;;;;;;23.20;99.90;;;;;;4936682;29;19910;-53
2023/03/20 06:53:57;;;;;;;;;;;23.30;99.90;;;;;;4936322;29;19956;-51
2023/03/20 06:56:23;;;;;;;;;;;23.30;99.90;;;;;;4935214;29;20356;-52
2023/03/20 06:58:49;;;;;;;;;;;23.30;99.90;;;;;;4936633;29;20383;-52
2023/03/20 07:01:16;;;;;;;;;;;23.30;99.90;;;;;;4936325;29;19918;-52
2023/03/20 07:03:42;;;;;;;;;;;23.30;99.90;;;;;;4936481;29;19913;-51
2023/03/20 07:06:10;;;;;;;;;;;23.30;99.90;;;;;;4948848;29;19914;-52
2023/03/20 07:08:36;;;;;;;;;;;23.30;99.90;;;;;;4936379;28;19957;-53
2023/03/20 07:11:03;;;;;;;;;;;23.30;99.90;;;;;;4935145;29;19942;-52
2023/03/20 07:13:29;;;;;;;;;;;23.30;99.90;;;;;;4936301;29;19906;-52
2023/03/20 07:15:56;;;;;;;;;;;23.30;99.90;;;;;;4935005;29;19925;-51
2023/03/20 07:18:21;;;;;;;;;;;23.30;99.90;;;;;;4934537;29;20348;-52
2023/03/20 07:20:47;;;;;;;;;;;23.30;99.90;;;;;;4936197;29;19997;-53
2023/03/20 07:23:12;;;;;;;;;;;23.30;99.90;;;;;;4936094;29;19906;-53
2023/03/20 07:25:38;;;;;;;;;;;23.30;99.90;;;;;;4935929;29;19994;-52
2023/03/20 07:28:04;;;;;;;;;;;23.30;99.90;;;;;;4936177;29;19907;-51
2023/03/20 07:30:31;;;;;;;;;;;23.30;99.90;;;;;;4936027;29;19907;-52
2023/03/20 07:32:57;;;;;;;;;;;23.30;99.90;;;;;;4935766;29;20398;-52
2023/03/20 07:35:23;;;;;;;;;;;23.30;99.90;;;;;;4935854;29;19914;-52
2023/03/20 07:37:48;;;;;;;;;;;23.30;99.90;;;;;;4934460;29;19906;-53
2023/03/20 07:40:14;;;;;;;;;;;23.30;99.90;;;;;;4934507;29;19907;-51
2023/03/20 07:42:40;;;;;;;;;;;23.30;99.90;;;;;;4934518;29;19954;-54
2023/03/20 07:45:06;;;;;;;;;;;23.40;99.90;;;;;;4936090;29;20391;-53
2023/03/20 07:47:32;;;;;;;;;;;23.30;99.90;;;;;;4935904;29;19907;-54
2023/03/20 07:49:58;;;;;;;;;;;23.40;99.90;;;;;;4935502;29;19911;-53
2023/03/20 07:52:23;;;;;;;;;;;23.30;99.90;;;;;;4935326;29;19954;-53
2023/03/20 07:54:49;;;;;;;;;;;23.40;99.90;;;;;;4935574;29;20020;-53
2023/03/20 07:57:15;;;;;;;;;;;23.30;99.90;;;;;;4935501;29;19913;-53
2023/03/20 07:59:41;;;;;;;;;;;23.30;99.90;;;;;;4936459;29;19907;-54
2023/03/20 08:02:10;;;;;;;;;;;23.30;99.90;;;;;;4947495;28;19922;-53
2023/03/20 08:04:36;;;;;;;;;;;23.40;99.90;;;;;;4935508;29;19906;-53
2023/03/20 08:07:01;;;;;;;;;;;23.30;99.90;;;;;;4935455;29;19914;-54
2023/03/20 08:09:27;;;;;;;;;;;23.40;99.90;;;;;;4935388;29;19930;-54
2023/03/20 08:11:52;;;;;;;;;;;23.40;99.90;;;;;;4935308;29;20000;-52
2023/03/20 08:14:18;;;;;;;;;;;23.30;99.90;;;;;;4947981;29;19910;-53
2023/03/20 08:16:44;;;;;;;;;;;23.30;99.90;;;;;;4935485;29;19918;-54
2023/03/20 08:19:09;;;;;;;;;;;23.40;99.90;;;;;;4935383;29;20290;-53
2023/03/20 08:21:35;;;;;;;;;;;23.40;99.90;;;;;;4935388;29;19907;-53
2023/03/20 08:24:00;;;;;;;;;;;23.40;99.90;;;;;;4935366;29;19938;-54
2023/03/20 08:26:26;;;;;;;;;;;23.40;99.90;;;;;;4935037;29;19913;-53
2023/03/20 08:28:52;;;;;;;;;;;23.40;99.90;;;;;;4933980;29;19913;-53
2023/03/20 08:31:17;;;;;;;;;;;23.40;99.90;;;;;;4935154;29;19990;-53
2023/03/20 08:33:46;;;;;;;;;;;23.40;99.90;;;;;;4934943;29;20382;-53
2023/03/20 08:36:14;;;;;;;;;;;23.40;99.90;;;;;;4935055;29;19910;-53
2023/03/20 08:38:40;;;;;;;;;;;23.40;99.90;;;;;;4935290;29;20275;-54
2023/03/20 08:41:06;;;;;;;;;;;23.40;99.90;;;;;;4935089;29;19906;-53
2023/03/20 08:43:32;;;;;;;;;;;23.40;99.90;;;;;;4935008;29;19930;-54
2023/03/20 08:45:57;;;;;;;;;;;23.40;99.90;;;;;;4935107;29;20367;-54
2023/03/20 08:48:24;;;;;;;;;;;23.40;99.90;;;;;;4934762;29;19914;-54
2023/03/20 08:50:50;;;;;;;;;;;23.40;99.90;;;;;;4935144;29;19914;-53
2023/03/20 08:53:15;;;;;;;;;;;23.40;99.90;;;;;;4934904;29;19907;-54
2023/03/20 08:55:46;;;;;;;;;;;23.50;99.90;;;;;;4935001;29;19942;-53
2023/03/20 08:58:12;;;;;;;;;;;23.40;99.90;;;;;;4934973;29;19914;-53
2023/03/20 09:00:37;;;;;;;;;;;23.50;99.90;;;;;;4935082;29;19914;-54
2023/03/20 09:03:03;;;;;;;;;;;23.50;99.90;;;;;;4935529;29;19981;-53
2023/03/20 09:05:29;;;;;;;;;;;23.50;99.90;;;;;;4938590;29;20248;-53
2023/03/20 09:07:54;;;;;;;;;;;23.50;99.90;;;;;;4938638;29;19915;-53
2023/03/20 09:10:20;;;;;;;;;;;23.50;99.90;;;;;;4938533;29;20279;-55
2023/03/20 09:12:46;;;;;;;;;;;23.50;99.90;;;;;;4938636;29;19961;-54
2023/03/20 09:15:11;;;;;;;;;;;23.50;99.90;;;;;;4938404;29;20253;-54
2023/03/20 09:17:37;;;;;;;;;;;23.60;99.90;;;;;;4938439;29;19906;-53
2023/03/20 09:20:04;;;;;;;;;;;23.60;99.90;;;;;;4938091;29;19945;-53
2023/03/20 09:22:29;;;;;;;;;;;23.60;99.90;;;;;;4938485;29;20279;-53
2023/03/20 09:24:55;;;;;;;;;;;23.60;99.90;;;;;;4938188;29;19962;-53
2023/03/20 09:27:21;;;;;;;;;;;23.60;99.90;;;;;;4938187;29;19914;-54
2023/03/20 09:29:46;;;;;;;;;;;23.70;99.90;;;;;;4938088;29;19906;-54
2023/03/20 09:32:12;;;;;;;;;;;23.70;99.90;;;;;;4938379;29;19907;-55
2023/03/20 09:34:38;;;;;;;;;;;23.70;99.90;;;;;;4937936;29;19970;-55
2023/03/20 09:37:05;;;;;;;;;;;23.70;99.90;;;;;;4943232;29;19960;-54
2023/03/20 09:39:31;;;;;;;;;;;23.70;99.90;;;;;;4945597;28;19910;-53
2023/03/20 09:41:59;;;;;;;;;;;23.70;99.90;;;;;;4937737;29;20039;-54
2023/03/20 09:44:37;;;;;;;;;;;23.80;99.90;;;;;;4948390;29;19956;-55
2023/03/20 09:47:07;;;;;;;;;;;23.80;99.90;;;;;;4938351;28;19985;-55
2023/03/20 09:49:42;;;;;;;;;;;23.80;99.90;;;;;;4937521;29;19907;-54
2023/03/20 09:52:23;;;;;;;;;;;23.80;99.90;;;;;;4937595;29;20371;-54
2023/03/20 09:55:07;;;;;;;;;;;23.80;99.90;;;;;;4937412;29;20386;-54
2023/03/20 09:57:44;;;;;;;;;;;23.90;99.90;;;;;;4937698;29;19949;-54
2023/03/20 10:00:10;;;;;;;;;;;23.90;99.90;;;;;;4937771;29;19977;-54
2023/03/20 10:02:39;;;;;;;;;;;23.90;99.90;;;;;;4937675;29;20359;-55
2023/03/20 10:05:11;;;;;;;;;;;23.90;99.90;;;;;;4937419;29;19914;-55
2023/03/20 10:07:37;;;;;;;;;;;24.00;99.90;;;;;;4937523;29;19914;-54
2023/03/20 10:10:03;;;;;;;;;;;24.00;99.90;;;;;;4937590;29;19907;-54
2023/03/20 10:12:45;;;;;;;;;;;24.10;99.90;;;;;;4937271;29;19930;-54
2023/03/20 10:15:19;;;;;;;;;;;24.10;99.90;;;;;;4937314;29;19922;-55
2023/03/20 10:18:08;;;;;;;;;;;24.10;99.90;;;;;;4937655;29;19907;-55
2023/03/20 10:20:35;;;;;;;;;;;24.20;99.90;;;;;;4935767;29;19906;-54
2023/03/20 10:23:01;;;;;;;;;;;24.20;99.90;;;;;;4937147;29;19945;-54
2023/03/20 10:25:47;;;;;;;;;;;24.20;99.90;;;;;;4937226;29;20001;-54
2023/03/20 10:28:15;;;;;;;;;;;24.20;99.90;;;;;;4949928;29;20314;-54
2023/03/20 10:30:41;;;;;;;;;;;24.30;99.90;;;;;;4936945;29;20375;-55
2023/03/20 10:33:25;;;;;;;;;;;24.30;99.90;;;;;;4949777;29;19910;-55
2023/03/20 10:35:51;;;;;;;;;;;24.30;99.90;;;;;;4936919;29;20442;-54
2023/03/20 10:38:31;;;;;;;;;;;24.30;99.90;;;;;;4937027;29;19907;-53
2023/03/20 10:40:57;;;;;;;;;;;24.40;99.90;;;;;;4936714;29;19914;-55
2023/03/20 10:43:25;;;;;;;;;;;24.40;99.90;;;;;;4936635;29;19911;-55
2023/03/20 10:45:53;;;;;;;;;;;24.40;99.90;;;;;;4936756;29;19910;-55
2023/03/20 10:48:30;;;;;;;;;;;24.50;99.90;;;;;;4936431;29;19907;-53
2023/03/20 10:50:58;;;;;;;;;;;24.50;99.90;;;;;;4936587;29;19914;-53
2023/03/20 10:53:27;;;;;;;;;;;24.50;99.90;;;;;;4949347;29;20045;-53
2023/03/20 10:55:57;;;;;;;;;;;24.50;99.90;;;;;;4936363;29;19921;-53
2023/03/20 10:58:24;;;;;;;;;;;24.50;99.90;;;;;;4949356;29;19913;-53
2023/03/20 11:00:50;;;;;;;;;;;24.60;99.90;;;;;;4936473;29;19967;-53
2023/03/20 11:03:27;;;;;;;;;;;24.60;99.90;;;;;;4936466;29;19953;-54
2023/03/20 11:05:56;;;;;;;;;;;24.60;99.90;;;;;;4936530;29;20009;-54
2023/03/20 11:08:23;;;;;;;;;;;24.70;99.90;;;;;;4936407;29;19913;-53
2023/03/20 11:10:56;;;;;;;;;;;24.70;99.90;;;;;;4936310;29;19911;-54
2023/03/20 11:13:25;;;;;;;;;;;24.70;99.90;;;;;;4936332;29;19915;-55
2023/03/20 11:15:51;;;;;;;;;;;24.70;99.90;;;;;;4948304;29;19922;-54
2023/03/20 11:18:17;;;;;;;;;;;24.70;99.90;;;;;;4936548;28;19914;-55
2023/03/20 11:20:48;;;;;;;;;;;24.80;99.90;;;;;;4936151;29;19907;-53
2023/03/20 11:23:18;;;;;;;;;;;24.80;99.90;;;;;;4935967;29;19907;-54
2023/03/20 11:25:58;;;;;;;;;;;24.80;99.90;;;;;;4935310;29;19914;-53
2023/03/20 11:28:24;;;;;;;;;;;24.80;99.90;;;;;;4922803;29;20256;-54
2023/03/20 11:30:55;;;;;;;;;;;24.80;99.90;;;;;;4934846;29;19913;-53
2023/03/20 11:33:24;;;;;;;;;;;24.80;99.90;;;;;;4935860;29;19915;-54
2023/03/20 11:35:51;;;;;;;;;;;24.90;99.90;;;;;;4936057;29;19915;-53
2023/03/20 11:38:20;;;;;;;;;;;24.90;99.90;;;;;;4936056;29;19911;-54
2023/03/20 11:40:47;;;;;;;;;;;24.90;99.90;;;;;;4935712;29;19907;-53
2023/03/20 11:43:21;;;;;;;;;;;25.00;99.90;;;;;;4935670;29;19913;-54
2023/03/20 11:45:48;;;;;;;;;;;25.00;99.90;;;;;;4935858;29;19998;-54
2023/03/20 11:48:21;;;;;;;;;;;25.00;99.90;;;;;;4935591;29;19907;-53
2023/03/20 11:50:50;;;;;;;;;;;25.00;99.90;;;;;;4936071;29;19907;-51
2023/03/20 11:53:20;;;;;;;;;;;25.00;99.90;;;;;;4935587;29;20339;-54
2023/03/20 11:55:59;;;;;;;;;;;25.10;99.90;;;;;;4935464;29;19938;-53
2023/03/20 11:58:24;;;;;;;;;;;25.10;99.90;;;;;;4935640;29;19911;-54
2023/03/20 12:00:53;;;;;;;;;;;25.10;99.90;;;;;;4944632;29;19928;-53
2023/03/20 12:03:37;;;;;;;;;;;25.10;99.90;;;;;;4938791;28;19913;-55
2023/03/20 12:06:07;;;;;;;;;;;25.20;99.90;;;;;;4935505;29;19910;-53
2023/03/20 12:08:34;;;;;;;;;;;25.20;99.90;;;;;;4935181;29;20016;-54
2023/03/20 12:11:06;;;;;;;;;;;25.20;99.90;;;;;;4935334;29;19907;-53
2023/03/20 12:13:34;;;;;;;;;;;25.20;99.90;;;;;;4935208;29;20005;-54
2023/03/20 12:16:04;;;;;;;;;;;25.20;99.90;;;;;;4933944;29;19915;-54
2023/03/20 12:18:31;;;;;;;;;;;25.30;99.90;;;;;;4935045;29;19942;-53
2023/03/20 12:21:03;;;;;;;;;;;25.30;99.90;;;;;;4935378;29;19907;-53
2023/03/20 12:23:34;;;;;;;;;;;25.30;99.90;;;;;;4935362;29;19910;-53
2023/03/20 12:26:03;;;;;;;;;;;25.30;99.90;;;;;;4935061;29;19913;-54
2023/03/20 12:28:38;;;;;;;;;;;25.30;99.90;;;;;;4935184;29;19914;-54
2023/03/20 12:31:21;;;;;;;;;;;25.30;99.90;;;;;;4935371;29;19907;-55
2023/03/20 12:33:46;;;;;;;;;;;25.40;99.90;;;;;;4935077;29;20375;-53
2023/03/20 12:36:14;;;;;;;;;;;25.40;99.90;;;;;;4935063;29;19918;-54
2023/03/20 12:38:40;;;;;;;;;;;25.40;99.90;;;;;;4937026;29;19914;-53
2023/03/20 12:41:11;;;;;;;;;;;25.40;99.90;;;;;;4939037;29;19914;-56
2023/03/20 12:43:48;;;;;;;;;;;25.40;99.90;;;;;;4938995;29;19906;-55
2023/03/20 12:46:32;;;;;;;;;;;25.40;99.90;;;;;;4939048;29;20311;-54
2023/03/20 12:49:04;;;;;;;;;;;25.40;99.90;;;;;;4927430;29;19914;-54
2023/03/20 12:51:30;;;;;;;;;;;25.50;99.90;;;;;;4937478;29;19907;-54
2023/03/20 12:54:14;;;;;;;;;;;25.50;99.90;;;;;;4938980;29;19907;-54
2023/03/20 12:57:05;;;;;;;;;;;25.50;99.90;;;;;;4938531;29;19925;-54
2023/03/20 12:59:40;;;;;;;;;;;25.50;99.90;;;;;;4938783;29;19911;-54
2023/03/20 13:02:25;;;;;;;;;;;25.50;99.90;;;;;;4938712;29;19935;-53
2023/03/20 13:04:54;;;;;;;;;;;25.50;99.90;;;;;;4938473;29;19911;-53
2023/03/20 13:07:21;;;;;;;;;;;25.50;99.90;;;;;;4938612;29;19911;-54
2023/03/20 13:09:46;;;;;;;;;;;25.60;99.90;;;;;;4938510;29;19969;-54
2023/03/20 13:12:18;;;;;;;;;;;25.60;99.90;;;;;;4938530;29;20390;-54
2023/03/20 13:14:47;;;;;;;;;;;25.60;99.90;;;;;;4938293;29;19962;-54
2023/03/20 13:17:35;;;;;;;;;;;25.60;99.90;;;;;;4938280;29;20271;-53
2023/03/20 13:20:34;;;;;;;;;;;25.60;99.90;;;;;;4937777;29;19961;-54
2023/03/20 13:23:06;;;;;;;;;;;25.60;99.90;;;;;;4937089;29;19949;-55
2023/03/20 13:25:35;;;;;;;;;;;25.60;99.90;;;;;;4943219;29;20098;-54
2023/03/20 13:28:01;;;;;;;;;;;25.60;99.90;;;;;;4945673;28;19962;-55
2023/03/20 13:30:33;;;;;;;;;;;25.70;99.90;;;;;;4938137;29;19907;-58
2023/03/20 13:33:01;;;;;;;;;;;25.70;99.90;;;;;;4938061;29;19950;-54
2023/03/20 13:35:30;;;;;;;;;;;25.70;99.90;;;;;;4936899;29;19922;-54
2023/03/20 13:38:21;;;;;;;;;;;25.70;99.90;;;;;;4938096;29;20275;-54
2023/03/20 13:40:51;;;;;;;;;;;25.70;99.90;;;;;;4937711;29;20001;-54
2023/03/20 13:43:29;;;;;;;;;;;25.70;99.90;;;;;;4937797;29;20315;-54
2023/03/20 13:46:07;;;;;;;;;;;25.70;99.90;;;;;;4938044;29;19911;-53
2023/03/20 13:48:34;;;;;;;;;;;25.70;99.90;;;;;;4937137;29;19907;-53
2023/03/20 13:51:00;;;;;;;;;;;25.70;99.90;;;;;;4937743;29;19911;-53
2023/03/20 13:53:25;;;;;;;;;;;25.80;99.90;;;;;;4937962;29;20378;-53
2023/03/20 13:55:57;;;;;;;;;;;25.80;99.90;;;;;;4937590;29;19954;-53
2023/03/20 13:58:42;;;;;;;;;;;25.80;99.90;;;;;;4937726;29;19907;-54
2023/03/20 14:01:22;;;;;;;;;;;25.80;99.90;;;;;;4937573;29;19947;-53
2023/03/20 14:03:48;;;;;;;;;;;25.80;99.90;;;;;;4936286;29;20388;-55
2023/03/20 14:06:17;;;;;;;;;;;25.80;99.90;;;;;;4937521;29;19993;-54
2023/03/20 14:08:47;;;;;;;;;;;25.80;99.90;;;;;;4937539;29;19914;-54
2023/03/20 14:11:19;;;;;;;;;;;25.80;99.90;;;;;;4937168;29;19907;-54
2023/03/20 14:13:47;;;;;;;;;;;25.80;99.90;;;;;;4943635;29;19907;-55
2023/03/20 14:16:14;;;;;;;;;;;25.80;99.90;;;;;;4943657;28;20022;-55
2023/03/20 14:18:40;;;;;;;;;;;25.80;99.90;;;;;;4937282;29;19906;-53
2023/03/20 14:21:13;;;;;;;;;;;25.80;99.90;;;;;;4949081;29;19907;-55
2023/03/20 14:23:45;;;;;;;;;;;25.80;99.90;;;;;;4937257;28;20307;-55
2023/03/20 14:26:21;;;;;;;;;;;25.80;99.90;;;;;;4950536;29;19910;-54